Time;durP1;ratioP1;P1;durP2;ratioP2;P2;SDS_P1;SDS_P2;PMS_P1;PMS_P2;Temp;Humidity;BMP_temperature;BMP_pressure;BME280_temperature;BME280_humidity;BME280_pressure;Samples;Min_cycle;Max_cycle;Signal;HPM_P1;HPM_P2
2022/05/23 03:00:14;;;;;;;0.50;0.50;;;26.70;43.40;;;;;;6121798;22;45898;31
2022/05/23 03:05:24;;;;;;;0.77;0.68;;;26.70;43.50;;;;;;4926866;28;46134;-60
2022/05/23 03:07:49;;;;;;;0.90;0.73;;;26.70;43.50;;;;;;4930448;28;45520;-60
2022/05/23 03:10:15;;;;;;;0.90;0.70;;;26.70;43.50;;;;;;4929224;28;46341;-59
2022/05/23 03:12:41;;;;;;;0.98;0.85;;;26.70;43.50;;;;;;4913784;28;45814;-60
2022/05/23 03:15:07;;;;;;;0.70;0.60;;;26.70;43.50;;;;;;4931416;28;45976;-60
2022/05/23 03:17:34;;;;;;;0.57;0.50;;;26.70;43.50;;;;;;4922768;28;45967;-60
2022/05/23 03:19:59;;;;;;;0.80;0.80;;;26.70;43.50;;;;;;4934386;28;45067;-59
2022/05/23 03:27:54;;;;;;;0.50;0.50;;;26.70;43.60;;;;;;4940382;28;45176;-60
2022/05/23 03:30:19;;;;;;;0.80;0.80;;;26.70;43.60;;;;;;4932712;28;45341;-60
2022/05/23 03:32:45;;;;;;;0.82;0.60;;;26.70;43.60;;;;;;4929437;28;45673;-57
2022/05/23 03:35:11;;;;;;;1.27;0.70;;;26.70;43.60;;;;;;4928912;28;46082;-60
2022/05/23 03:37:37;;;;;;;0.65;0.60;;;26.60;43.50;;;;;;4931025;28;45307;-60
2022/05/23 03:40:04;;;;;;;0.80;0.63;;;26.60;43.60;;;;;;4929967;28;46391;-62
2022/05/23 03:42:30;;;;;;;1.85;0.93;;;26.60;43.60;;;;;;4931307;28;45499;-57
2022/05/23 03:44:55;;;;;;;0.90;0.70;;;26.60;43.50;;;;;;4931495;28;46107;-60
2022/05/23 03:47:21;;;;;;;0.75;0.70;;;26.60;43.50;;;;;;4927745;28;44684;-59
2022/05/23 03:49:46;;;;;;;1.38;0.63;;;26.60;43.60;;;;;;4935103;28;45205;-60
2022/05/23 03:52:12;;;;;;;1.20;0.70;;;26.60;43.60;;;;;;4933247;28;46010;-62
2022/05/23 03:54:38;;;;;;;1.10;0.68;;;26.60;43.60;;;;;;4932092;28;45911;-59
2022/05/23 03:57:03;;;;;;;0.68;0.68;;;26.60;43.60;;;;;;4930323;28;45753;-60
2022/05/23 03:59:29;;;;;;;0.80;0.80;;;26.60;43.60;;;;;;4926784;28;45601;-59
2022/05/23 04:01:56;;;;;;;1.00;0.90;;;26.60;43.60;;;;;;4922161;28;45552;-60
2022/05/23 04:04:25;;;;;;;1.13;0.73;;;26.60;43.60;;;;;;4932053;28;48950;-59
2022/05/23 04:06:51;;;;;;;1.08;0.75;;;26.60;43.60;;;;;;4928190;28;45574;-60
2022/05/23 04:09:17;;;;;;;0.80;0.73;;;26.60;43.60;;;;;;4929058;28;46292;-60
2022/05/23 04:11:42;;;;;;;0.50;0.50;;;26.60;43.70;;;;;;4929501;28;45291;-59
2022/05/23 04:14:08;;;;;;;0.70;0.70;;;26.60;43.60;;;;;;4929822;28;46131;-61
2022/05/23 04:16:34;;;;;;;0.68;0.60;;;26.60;43.60;;;;;;4929228;28;45486;-59
2022/05/23 04:19:04;;;;;;;1.70;0.73;;;26.60;44.20;;;;;;4929215;28;44913;-61
2022/05/23 04:21:29;;;;;;;1.20;0.77;;;26.60;43.60;;;;;;4945270;28;46369;-62
2022/05/23 04:23:55;;;;;;;3.53;0.82;;;26.60;43.60;;;;;;4947234;28;45853;-60
2022/05/23 04:26:20;;;;;;;0.70;0.70;;;26.60;43.70;;;;;;4950366;28;45312;-61
2022/05/23 04:28:46;;;;;;;1.00;0.88;;;26.60;43.70;;;;;;4948344;28;44906;-60
2022/05/23 04:31:12;;;;;;;0.70;0.70;;;26.60;43.70;;;;;;4948706;28;46229;-57
2022/05/23 04:36:21;;;;;;;1.48;0.70;;;26.60;43.70;;;;;;4947834;28;45248;-60
2022/05/23 04:38:47;;;;;;;0.85;0.60;;;26.60;43.70;;;;;;4944506;28;45491;-57
2022/05/23 04:41:13;;;;;;;2.15;1.00;;;26.60;43.70;;;;;;4943269;28;45395;-63
2022/05/23 04:43:38;;;;;;;0.70;0.55;;;26.60;43.70;;;;;;4947105;28;46048;-62
2022/05/23 04:46:04;;;;;;;0.68;0.60;;;26.60;43.70;;;;;;4949972;28;45489;-58
2022/05/23 04:51:14;;;;;;;0.52;0.50;;;26.60;43.70;;;;;;4941316;28;45265;-60
2022/05/23 04:53:39;;;;;;;1.08;0.70;;;26.60;43.70;;;;;;4943379;28;45870;-61
2022/05/23 04:56:05;;;;;;;0.68;0.68;;;26.50;43.70;;;;;;4942148;28;44757;-60
2022/05/23 04:58:31;;;;;;;0.70;0.52;;;26.50;43.70;;;;;;4946055;28;46463;-60
2022/05/23 05:00:58;;;;;;;0.80;0.77;;;26.60;43.70;;;;;;4945857;28;46945;-61
2022/05/23 05:03:23;;;;;;;0.90;0.80;;;26.60;43.70;;;;;;4949873;28;46144;-60
2022/05/23 05:05:49;;;;;;;0.90;0.65;;;26.50;43.70;;;;;;4949491;28;45047;-65
2022/05/23 05:08:15;;;;;;;1.10;0.60;;;26.50;43.70;;;;;;4947626;28;45336;-60
2022/05/23 05:10:40;;;;;;;0.90;0.85;;;26.50;43.70;;;;;;4947263;28;45412;-58
2022/05/23 05:13:06;;;;;;;0.60;0.60;;;26.50;43.70;;;;;;4935661;28;46139;-59
2022/05/23 05:15:32;;;;;;;1.88;0.80;;;26.50;43.70;;;;;;4939637;28;45359;-59
2022/05/23 05:17:57;;;;;;;1.30;0.77;;;26.50;43.70;;;;;;4923370;28;45639;-62
2022/05/23 05:20:23;;;;;;;0.80;0.80;;;26.60;43.80;;;;;;4940066;28;45594;-60
2022/05/23 05:22:50;;;;;;;0.93;0.70;;;26.60;43.80;;;;;;4946122;28;46015;-60
2022/05/23 05:25:16;;;;;;;1.10;0.80;;;26.50;43.70;;;;;;4943595;28;45335;-60
2022/05/23 05:27:42;;;;;;;1.05;0.88;;;26.60;43.70;;;;;;4945974;28;45547;-58
2022/05/23 05:30:09;;;;;;;0.57;0.57;;;26.60;43.70;;;;;;4945611;28;45062;-63
2022/05/23 05:32:55;;;;;;;1.15;0.80;;;26.60;43.60;;;;;;4946979;28;47126;-58
2022/05/23 05:35:25;;;;;;;0.98;0.80;;;26.60;43.50;;;;;;4928585;28;45243;-60
2022/05/23 05:37:55;;;;;;;0.63;0.63;;;26.60;43.50;;;;;;4948033;28;45624;-64
2022/05/23 05:40:22;;;;;;;0.68;0.60;;;26.70;43.50;;;;;;4945713;28;45638;-62
2022/05/23 05:42:57;;;;;;;1.83;0.57;;;26.60;43.50;;;;;;4928320;28;46968;-62
2022/05/23 05:45:48;;;;;;;1.77;0.80;;;26.60;43.50;;;;;;4945200;28;44832;-60
2022/05/23 05:48:13;;;;;;;0.95;0.60;;;26.60;43.80;;;;;;4930325;28;46538;-60
2022/05/23 05:50:40;;;;;;;2.88;0.70;;;26.60;43.60;;;;;;4928464;28;45445;-60
2022/05/23 05:53:14;;;;;;;0.95;0.80;;;26.60;43.60;;;;;;4944483;28;45495;-62
2022/05/23 05:55:40;;;;;;;0.68;0.68;;;26.60;43.60;;;;;;4927690;28;46064;-61
2022/05/23 05:58:05;;;;;;;1.15;0.75;;;26.60;43.50;;;;;;4914981;28;45275;-58
2022/05/23 06:00:31;;;;;;;1.42;1.05;;;26.60;43.60;;;;;;4947183;28;45254;-59
2022/05/23 06:02:56;;;;;;;2.28;1.00;;;26.60;43.60;;;;;;4951819;28;45983;-60
2022/05/23 06:05:22;;;;;;;0.70;0.70;;;26.60;43.50;;;;;;4950083;28;44933;-62
2022/05/23 06:13:16;;;;;;;1.75;0.70;;;26.60;43.50;;;;;;4951792;28;46135;-65
2022/05/23 06:15:43;;;;;;;0.80;0.70;;;26.60;43.50;;;;;;4949737;28;45001;-64
2022/05/23 06:18:08;;;;;;;0.80;0.77;;;26.60;43.60;;;;;;4951378;28;45611;-67
2022/05/23 06:20:34;;;;;;;1.15;0.70;;;26.70;43.60;;;;;;4947910;28;45184;-64
2022/05/23 06:23:01;;;;;;;0.70;0.70;;;26.70;44.10;;;;;;4948895;28;45311;-64
2022/05/23 06:25:26;;;;;;;1.08;0.80;;;26.70;43.40;;;;;;4930593;28;45413;-64
2022/05/23 06:27:52;;;;;;;1.48;0.90;;;26.70;44.00;;;;;;4932745;28;45379;-63
2022/05/23 06:30:17;;;;;;;0.80;0.80;;;26.80;43.40;;;;;;4947993;28;45483;-66
2022/05/23 06:32:43;;;;;;;1.15;0.93;;;26.80;43.30;;;;;;4948464;28;45462;-66
2022/05/23 06:35:09;;;;;;;1.75;0.82;;;26.80;43.30;;;;;;4950892;28;45702;-63
2022/05/23 06:37:39;;;;;;;1.10;0.75;;;26.80;43.40;;;;;;4951889;28;45371;-64
2022/05/23 06:40:06;;;;;;;0.60;0.60;;;26.80;43.40;;;;;;4951532;28;45496;-63
2022/05/23 06:42:32;;;;;;;1.20;0.73;;;26.80;43.40;;;;;;4948782;28;45079;-67
2022/05/23 06:44:58;;;;;;;0.80;0.80;;;26.80;43.50;;;;;;4951263;28;45244;-64
2022/05/23 06:47:24;;;;;;;1.00;0.90;;;26.80;44.00;;;;;;4947058;28;45537;-63
2022/05/23 06:49:50;;;;;;;0.88;0.80;;;26.80;43.40;;;;;;4932588;28;45405;-64
2022/05/23 06:52:15;;;;;;;1.65;0.80;;;26.80;43.40;;;;;;4947257;28;45434;-66
2022/05/23 06:54:41;;;;;;;0.80;0.60;;;26.80;43.40;;;;;;4952515;28;44594;-64
2022/05/23 06:57:07;;;;;;;0.93;0.80;;;26.80;43.40;;;;;;4931706;28;45599;-64
2022/05/23 06:59:33;;;;;;;0.80;0.70;;;26.80;43.40;;;;;;4948638;28;45499;-64
2022/05/23 07:01:58;;;;;;;0.65;0.63;;;26.90;43.50;;;;;;4947682;28;45324;-65
2022/05/23 07:04:24;;;;;;;2.00;0.70;;;26.90;43.50;;;;;;4931001;28;45526;-69
2022/05/23 07:12:25;;;;;;;1.05;0.93;;;26.90;43.40;;;;;;4948080;28;46339;-67
2022/05/23 07:14:51;;;;;;;0.68;0.60;;;26.90;43.40;;;;;;4932178;28;45402;-65
2022/05/23 07:17:17;;;;;;;1.08;0.73;;;26.90;43.40;;;;;;4931633;28;45548;-65
2022/05/23 07:19:43;;;;;;;0.90;0.68;;;26.90;43.40;;;;;;4950361;28;45524;-64
2022/05/23 07:22:08;;;;;;;0.68;0.68;;;27.00;43.50;;;;;;4947567;28;46624;-66
2022/05/23 07:24:34;;;;;;;3.28;0.80;;;26.90;43.50;;;;;;4947205;28;45284;-66
2022/05/23 07:27:00;;;;;;;2.45;1.00;;;26.90;43.50;;;;;;4933408;28;45317;-65
2022/05/23 07:29:26;;;;;;;3.28;1.00;;;26.90;43.50;;;;;;4952657;28;46312;-63
2022/05/23 07:31:51;;;;;;;0.80;0.80;;;27.00;43.60;;;;;;4945916;28;46503;-64
2022/05/23 07:34:17;;;;;;;0.88;0.57;;;27.00;44.20;;;;;;4949232;28;45245;-63
2022/05/23 07:36:44;;;;;;;0.95;0.70;;;26.90;43.50;;;;;;4949036;28;45311;-63
2022/05/23 07:39:11;;;;;;;0.75;0.70;;;27.00;43.60;;;;;;4949414;28;45196;-63
2022/05/23 07:41:38;;;;;;;0.98;0.80;;;27.00;43.60;;;;;;4948047;28;45918;-64
2022/05/23 07:44:06;;;;;;;0.90;0.90;;;27.00;43.70;;;;;;4947252;28;45351;-63
2022/05/23 07:46:32;;;;;;;1.52;1.05;;;27.00;43.70;;;;;;4936975;28;45632;-65
2022/05/23 07:48:58;;;;;;;1.55;0.73;;;27.00;43.60;;;;;;4949057;28;45736;-65
2022/05/23 07:51:24;;;;;;;1.00;0.65;;;27.00;43.60;;;;;;4932465;28;45847;-64
2022/05/23 08:02:04;;;;;;;0.98;0.90;;;27.00;43.60;;;;;;4947092;28;46180;-61
2022/05/23 08:04:30;;;;;;;2.30;0.80;;;27.00;43.60;;;;;;4931812;28;45279;-62
2022/05/23 08:06:55;;;;;;;1.20;0.90;;;27.00;43.60;;;;;;4949307;28;45279;-65
2022/05/23 08:09:21;;;;;;;1.25;1.05;;;27.00;43.70;;;;;;4933924;28;45610;-64
2022/05/23 08:11:49;;;;;;;2.45;1.08;;;27.00;43.60;;;;;;4947291;28;46863;-64
2022/05/23 08:14:15;;;;;;;0.98;0.80;;;27.10;43.60;;;;;;4915151;28;45152;-65
2022/05/23 08:16:41;;;;;;;2.63;0.88;;;27.10;43.50;;;;;;4951869;28;45659;-63
2022/05/23 08:19:06;;;;;;;1.48;1.08;;;27.10;43.50;;;;;;4948078;28;46192;-66
2022/05/23 08:21:32;;;;;;;0.73;0.73;;;27.10;43.50;;;;;;4947657;28;47222;-68
2022/05/23 08:23:58;;;;;;;1.38;0.90;;;27.10;43.60;;;;;;4931483;28;45292;-64
2022/05/23 08:26:25;;;;;;;1.10;0.70;;;27.10;43.60;;;;;;4951959;28;46332;-68
2022/05/23 08:28:51;;;;;;;1.27;0.85;;;27.10;43.60;;;;;;4952840;28;45089;-65
2022/05/23 08:31:17;;;;;;;2.53;1.10;;;27.10;43.60;;;;;;4951329;28;46370;-66
2022/05/23 08:33:42;;;;;;;1.83;1.00;;;27.10;43.60;;;;;;4952471;28;45486;-63
2022/05/23 08:36:10;;;;;;;0.55;0.50;;;27.10;43.60;;;;;;4952305;28;45393;-64
2022/05/23 08:38:35;;;;;;;2.55;1.08;;;27.10;43.90;;;;;;4948787;28;45482;-63
2022/05/23 08:41:23;;;;;;;1.08;0.90;;;27.20;43.60;;;;;;4950897;28;45899;-66
2022/05/23 08:44:05;;;;;;;0.75;0.70;;;27.20;43.70;;;;;;4933468;28;45245;-63
2022/05/23 08:46:52;;;;;;;3.25;0.90;;;27.20;43.60;;;;;;4934041;28;44794;-64
2022/05/23 08:49:26;;;;;;;1.00;0.90;;;27.20;43.60;;;;;;4948566;28;45487;-63
2022/05/23 08:52:07;;;;;;;1.25;0.90;;;27.20;43.60;;;;;;4946299;28;44913;-65
2022/05/23 08:55:01;;;;;;;1.40;1.10;;;27.20;43.60;;;;;;4929197;28;45276;-64
2022/05/23 08:57:33;;;;;;;;;;;27.20;43.60;;;;;;4932332;28;45281;-66
2022/05/23 09:00:05;;;;;;;1.15;0.82;;;27.20;43.50;;;;;;4947865;28;45335;-64
2022/05/23 09:02:41;;;;;;;2.75;0.90;;;27.20;43.50;;;;;;4938634;28;46900;-64
2022/05/23 09:05:15;;;;;;;2.05;1.40;;;27.30;43.40;;;;;;4944385;28;46600;-64
2022/05/23 09:07:47;;;;;;;2.30;1.40;;;27.20;43.00;;;;;;4913662;28;45500;-66
2022/05/23 09:10:28;;;;;;;2.58;1.73;;;27.10;43.10;;;;;;4931612;28;45604;-66
2022/05/23 09:12:53;;;;;;;2.03;1.13;;;27.00;43.20;;;;;;4919576;28;46034;-66
2022/05/23 09:15:20;;;;;;;2.47;1.05;;;27.00;43.40;;;;;;4930992;28;45671;-63
2022/05/23 09:17:48;;;;;;;5.38;1.30;;;27.00;43.40;;;;;;4930535;28;44681;-64
2022/05/23 09:20:16;;;;;;;1.35;1.00;;;27.00;43.30;;;;;;4928913;28;45611;-63
2022/05/23 09:22:50;;;;;;;3.25;1.17;;;27.10;43.20;;;;;;4930418;28;46096;-66
2022/05/23 09:25:21;;;;;;;3.22;1.45;;;27.10;43.20;;;;;;4917550;28;44679;-66
2022/05/23 09:28:02;;;;;;;1.75;1.50;;;27.10;43.10;;;;;;4944890;28;46227;-63
2022/05/23 09:30:27;;;;;;;1.70;1.08;;;27.10;42.90;;;;;;4947271;28;45267;-66
2022/05/23 09:33:08;;;;;;;3.20;1.20;;;27.10;43.00;;;;;;4929380;28;46105;-65
2022/05/23 09:35:46;;;;;;;4.80;1.20;;;27.10;42.90;;;;;;4931497;28;46577;-62
2022/05/23 09:38:45;;;;;;;4.32;1.23;;;27.00;42.90;;;;;;4934194;28;45543;-67
2022/05/23 09:41:27;;;;;;;3.75;1.13;;;27.00;42.90;;;;;;4949648;28;46729;-64
2022/05/23 09:49:30;;;;;;;1.73;1.20;;;26.90;43.20;;;;;;4940616;28;46369;-64
2022/05/23 09:52:02;;;;;;;1.73;1.25;;;26.90;43.10;;;;;;4951454;28;44822;-63
2022/05/23 09:54:47;;;;;;;1.85;1.17;;;27.00;43.20;;;;;;4952598;28;47243;-67
2022/05/23 09:57:18;;;;;;;2.58;1.20;;;27.00;43.10;;;;;;4955109;28;45391;-63
2022/05/23 09:59:44;;;;;;;3.60;1.40;;;27.00;43.10;;;;;;4953319;28;45374;-64
2022/05/23 10:02:16;;;;;;;3.53;1.30;;;27.00;43.10;;;;;;4936950;28;45308;-63
2022/05/23 10:04:44;;;;;;;2.17;1.30;;;27.00;43.10;;;;;;4952965;28;46088;-65
2022/05/23 10:07:27;;;;;;;3.28;1.10;;;27.00;43.10;;;;;;4953731;28;45331;-64
2022/05/23 10:09:56;;;;;;;1.35;0.90;;;27.10;43.00;;;;;;4954346;28;44707;-64
2022/05/23 10:12:21;;;;;;;2.30;1.17;;;27.10;43.00;;;;;;4951661;28;45500;-67
2022/05/23 10:14:52;;;;;;;2.47;1.35;;;27.10;43.00;;;;;;4951337;28;45771;-63
2022/05/23 10:17:28;;;;;;;2.25;0.95;;;27.10;43.00;;;;;;4954515;28;46087;-65
2022/05/23 10:19:54;;;;;;;1.52;1.20;;;27.10;43.00;;;;;;4951260;28;44717;-65
2022/05/23 10:22:25;;;;;;;2.00;1.30;;;27.10;42.90;;;;;;4947787;28;45489;-62
2022/05/23 10:25:05;;;;;;;3.40;1.23;;;27.10;42.90;;;;;;4937462;28;44900;-64
2022/05/23 10:27:34;;;;;;;1.55;1.08;;;27.20;42.90;;;;;;4920278;28;45224;-63
2022/05/23 10:30:05;;;;;;;1.77;1.10;;;27.20;43.00;;;;;;4955894;28;45542;-64
2022/05/23 10:32:41;;;;;;;2.65;1.20;;;27.20;43.00;;;;;;4931602;28;45371;-65
2022/05/23 10:35:41;;;;;;;1.48;0.98;;;27.20;42.90;;;;;;4936760;28;45596;-62
2022/05/23 10:44:35;;;;;;;0.82;0.82;;;27.20;42.70;;;;;;4950450;28;45120;-64
2022/05/23 10:47:25;;;;;;;1.98;1.20;;;27.20;42.80;;;;;;4952511;28;46011;-64
2022/05/23 10:50:19;;;;;;;2.33;1.10;;;27.20;42.70;;;;;;4937058;28;44736;-62
2022/05/23 10:52:52;;;;;;;4.28;1.10;;;27.30;42.70;;;;;;4936722;28;45073;-64
2022/05/23 10:55:19;;;;;;;1.25;0.93;;;27.30;42.80;;;;;;4936530;28;45558;-65
2022/05/23 10:58:06;;;;;;;1.85;0.95;;;27.30;42.70;;;;;;4933613;28;46391;-65
2022/05/23 11:00:53;;;;;;;4.95;1.10;;;27.30;42.80;;;;;;4952525;28;45185;-64
2022/05/23 11:04:04;;;;;;;1.52;0.80;;;27.30;42.80;;;;;;4938333;28;45315;-64
2022/05/23 11:06:55;;;;;;;2.70;0.95;;;27.30;42.80;;;;;;4925795;28;46519;-62
2022/05/23 11:09:32;;;;;;;1.30;1.10;;;27.40;42.80;;;;;;4951424;28;45945;-64
2022/05/23 11:12:16;;;;;;;5.22;1.20;;;27.40;42.80;;;;;;4950546;28;45213;-65
2022/05/23 11:14:52;;;;;;;4.75;1.08;;;27.40;42.80;;;;;;4948220;28;46168;-67
2022/05/23 11:17:32;;;;;;;7.05;1.50;;;27.40;42.80;;;;;;4933568;28;45198;-65
2022/05/23 11:20:06;;;;;;;2.50;1.20;;;27.50;42.80;;;;;;4946057;28;46601;-59
2022/05/23 11:22:34;;;;;;;1.85;1.30;;;27.50;42.90;;;;;;4934595;28;45255;-62
2022/05/23 11:25:20;;;;;;;2.70;1.13;;;27.50;42.80;;;;;;4954330;28;46306;-64
2022/05/23 11:36:09;;;;;;;2.08;1.00;;;27.60;42.80;;;;;;4924382;28;46846;-61
2022/05/23 11:38:42;;;;;;;2.05;1.05;;;27.60;42.80;;;;;;4950553;28;45302;-64
2022/05/23 11:41:26;;;;;;;3.58;1.30;;;27.60;42.80;;;;;;4935409;28;45313;-63
2022/05/23 11:43:52;;;;;;;1.52;1.20;;;27.70;42.80;;;;;;4935393;28;44763;-63
2022/05/23 11:46:28;;;;;;;2.75;1.10;;;27.70;42.80;;;;;;4949559;28;45311;-62
2022/05/23 11:48:56;;;;;;;3.60;1.10;;;27.70;42.80;;;;;;4933896;28;45723;-64
2022/05/23 11:51:24;;;;;;;2.28;0.95;;;27.70;42.80;;;;;;4934752;28;46946;-63
2022/05/23 11:53:56;;;;;;;4.88;1.00;;;27.80;42.80;;;;;;4951221;28;45466;-62
2022/05/23 11:56:35;;;;;;;1.58;1.05;;;27.80;42.80;;;;;;4954543;28;44718;-64
2022/05/23 11:59:00;;;;;;;3.55;1.00;;;27.80;42.80;;;;;;4935338;28;45114;-62
2022/05/23 12:01:27;;;;;;;1.85;1.00;;;27.80;42.80;;;;;;4918047;28;47077;-62
2022/05/23 12:03:54;;;;;;;1.15;1.05;;;27.80;42.80;;;;;;4933627;28;46236;-64
2022/05/23 12:06:38;;;;;;;1.63;0.95;;;27.80;42.70;;;;;;4949817;28;44981;-64
2022/05/23 12:09:05;;;;;;;1.88;1.38;;;27.90;42.70;;;;;;4951789;28;45424;-63
2022/05/23 12:11:34;;;;;;;2.30;1.05;;;27.90;42.70;;;;;;4951505;28;46400;-63
2022/05/23 12:14:20;;;;;;;1.15;1.02;;;27.90;42.80;;;;;;4919122;28;45587;-64
2022/05/23 12:16:55;;;;;;;4.88;1.17;;;27.90;42.70;;;;;;4955222;28;46158;-63
2022/05/23 12:19:23;;;;;;;3.03;0.90;;;27.90;42.70;;;;;;4941213;28;45551;-64
2022/05/23 12:21:49;;;;;;;1.10;0.80;;;27.90;42.80;;;;;;4956957;28;46151;-63
2022/05/23 12:24:25;;;;;;;1.25;0.95;;;27.90;42.80;;;;;;4925338;28;44669;-64
2022/05/23 12:26:53;;;;;;;2.17;1.00;;;27.90;42.80;;;;;;4945831;28;45450;-66
2022/05/23 12:29:35;;;;;;;2.35;1.23;;;27.90;42.90;;;;;;4941691;28;44719;-63
2022/05/23 12:32:20;;;;;;;1.83;1.10;;;27.90;42.90;;;;;;4955342;28;45930;-64
2022/05/23 12:34:47;;;;;;;1.63;1.00;;;27.90;42.90;;;;;;4951091;28;45481;-63
2022/05/23 12:37:22;;;;;;;1.00;0.90;;;27.90;42.90;;;;;;4931956;28;45409;-64
2022/05/23 12:40:10;;;;;;;1.95;1.10;;;27.90;42.90;;;;;;4949126;28;44650;-65
2022/05/23 12:42:38;;;;;;;1.90;0.75;;;27.90;42.80;;;;;;4948775;28;45412;-64
2022/05/23 12:45:28;;;;;;;1.55;0.90;;;27.90;42.90;;;;;;4951491;28;44607;-63
2022/05/23 12:48:16;;;;;;;4.82;1.08;;;27.90;42.90;;;;;;4950673;28;45698;-66
2022/05/23 12:54:39;;;;;;;2.00;1.05;;;28.00;42.90;;;;;;4953920;28;46166;-64
2022/05/23 12:57:32;;;;;;;1.48;1.00;;;28.00;43.50;;;;;;4938047;28;44831;-64
2022/05/23 13:00:03;;;;;;;;;;;28.00;43.00;;;;;;4949640;28;44840;-64
2022/05/23 13:02:39;;;;;;;1.92;0.70;;;28.00;43.00;;;;;;4944388;28;45603;-66
2022/05/23 13:05:13;;;;;;;1.63;1.10;;;28.00;42.90;;;;;;4931157;28;46357;-67
2022/05/23 13:07:59;;;;;;;1.35;0.90;;;28.00;42.90;;;;;;4932732;28;45299;-65
2022/05/23 13:10:36;;;;;;;1.55;0.88;;;28.00;42.90;;;;;;4930525;28;45674;-66
2022/05/23 13:13:52;;;;;;;1.35;1.10;;;28.00;42.90;;;;;;4913661;28;45176;-60
2022/05/23 13:16:20;;;;;;;0.98;0.73;;;28.00;43.00;;;;;;4922824;28;47140;-65
2022/05/23 13:24:48;;;;;;;1.25;1.02;;;28.00;43.00;;;;;;4930079;28;45952;-64
2022/05/23 13:27:02;;;;;;;2.33;1.02;;;28.00;43.00;;;;;;4932570;28;45315;-64
2022/05/23 13:29:27;;;;;;;2.75;1.15;;;28.10;43.00;;;;;;4931265;28;45265;-65
2022/05/23 13:32:02;;;;;;;2.53;1.13;;;28.00;43.00;;;;;;4943609;28;46479;-65
2022/05/23 13:34:35;;;;;;;1.52;0.90;;;28.00;42.90;;;;;;4946616;28;45586;-66
2022/05/23 13:37:01;;;;;;;1.70;1.02;;;28.00;43.00;;;;;;4929994;28;46017;-66
2022/05/23 13:39:26;;;;;;;3.88;1.20;;;28.00;43.00;;;;;;4927798;28;45769;-64
2022/05/23 13:41:52;;;;;;;1.35;1.02;;;28.10;43.00;;;;;;4929678;28;45508;-66
2022/05/23 13:44:26;;;;;;;1.85;1.15;;;28.00;43.00;;;;;;4930238;28;45778;-64
2022/05/23 13:47:05;;;;;;;1.85;1.05;;;28.10;43.00;;;;;;4931735;28;46006;-62
2022/05/23 13:49:36;;;;;;;4.07;0.95;;;28.10;43.00;;;;;;4931142;28;45325;-65
2022/05/23 13:52:08;;;;;;;2.47;1.00;;;28.10;43.00;;;;;;4927845;28;46218;-63
2022/05/23 13:54:38;;;;;;;2.53;0.95;;;28.00;43.10;;;;;;4928831;28;45851;-64
2022/05/23 13:57:05;;;;;;;3.03;1.00;;;28.00;43.10;;;;;;4930100;28;45386;-66
2022/05/23 13:59:34;;;;;;;2.38;1.00;;;28.00;43.10;;;;;;4933787;28;45111;-62
2022/05/23 14:02:01;;;;;;;2.05;1.15;;;28.00;43.20;;;;;;4916284;28;45618;-64
2022/05/23 14:04:28;;;;;;;1.92;1.00;;;28.00;43.30;;;;;;4918839;28;45220;-65
2022/05/23 14:06:58;;;;;;;2.42;1.05;;;28.00;43.30;;;;;;4931669;28;46044;-66
2022/05/23 14:09:25;;;;;;;1.60;1.02;;;28.00;43.30;;;;;;4930195;28;45513;-63
2022/05/23 14:11:53;;;;;;;1.77;1.00;;;28.10;43.40;;;;;;4930588;28;45480;-61
2022/05/23 14:14:39;;;;;;;1.60;1.05;;;28.10;43.50;;;;;;4931500;28;45506;-60
2022/05/23 14:17:27;;;;;;;2.25;1.10;;;28.00;43.50;;;;;;4933598;28;46016;-63
2022/05/23 14:20:15;;;;;;;2.63;1.10;;;28.00;43.50;;;;;;4930855;28;45517;-63
2022/05/23 14:22:41;;;;;;;1.20;1.00;;;28.10;43.60;;;;;;4935944;28;46215;-67
2022/05/23 14:25:46;;;;;;;2.55;1.23;;;28.00;43.50;;;;;;4951967;28;44970;-61
2022/05/23 14:28:17;;;;;;;2.47;0.98;;;28.00;44.00;;;;;;4944435;28;46008;-63
2022/05/23 14:30:46;;;;;;;10.35;1.42;;;28.00;43.90;;;;;;4952923;28;45136;-64
2022/05/23 14:33:29;;;;;;;1.92;1.10;;;28.00;43.90;;;;;;4934163;28;45677;-61
2022/05/23 14:35:56;;;;;;;1.88;1.15;;;28.10;44.00;;;;;;4954122;28;46125;-63
2022/05/23 14:38:52;;;;;;;1.63;0.90;;;28.10;44.00;;;;;;4953157;28;45627;-63
2022/05/23 14:41:18;;;;;;;1.40;1.10;;;28.00;44.30;;;;;;4944186;28;45287;-65
2022/05/23 14:43:44;;;;;;;3.88;1.08;;;28.00;44.10;;;;;;4951896;28;45307;-65
2022/05/23 14:46:22;;;;;;;2.15;1.13;;;28.00;44.10;;;;;;4921214;28;45620;-64
2022/05/23 14:49:05;;;;;;;1.63;1.02;;;28.00;44.40;;;;;;4954330;28;45603;-65
2022/05/23 14:51:35;;;;;;;1.77;1.00;;;27.90;45.00;;;;;;4952474;28;46567;-64
2022/05/23 14:57:06;;;;;;;1.95;1.00;;;27.90;44.60;;;;;;4951788;28;46159;-63
2022/05/23 15:02:30;;;;;;;2.33;1.00;;;27.90;44.60;;;;;;4949760;28;45467;-63
2022/05/23 15:04:59;;;;;;;1.00;0.68;;;27.80;44.50;;;;;;4933910;28;45531;-63
2022/05/23 15:07:25;;;;;;;2.08;1.23;;;27.90;44.60;;;;;;4952274;28;45450;-64
2022/05/23 15:09:50;;;;;;;2.22;1.20;;;27.90;44.60;;;;;;4935208;28;45896;-62
2022/05/23 15:12:19;;;;;;;5.78;1.10;;;27.90;44.60;;;;;;4951222;28;45532;-66
2022/05/23 15:14:45;;;;;;;2.17;1.00;;;27.80;44.60;;;;;;4920077;28;45384;-65
2022/05/23 15:17:14;;;;;;;1.60;1.05;;;27.80;44.60;;;;;;4912069;28;46023;-64
2022/05/23 15:19:39;;;;;;;2.03;1.10;;;27.80;44.60;;;;;;4927987;28;45592;-67
2022/05/23 15:22:07;;;;;;;2.17;1.15;;;27.80;44.60;;;;;;4951424;28;45551;-64
2022/05/23 15:24:33;;;;;;;2.50;0.95;;;27.80;44.60;;;;;;4916618;28;44976;-64
2022/05/23 15:26:59;;;;;;;2.80;1.15;;;27.80;44.60;;;;;;4960438;28;45558;-66
2022/05/23 15:29:25;;;;;;;2.25;0.95;;;27.80;44.70;;;;;;4957440;28;46046;-66
2022/05/23 15:31:51;;;;;;;1.42;0.70;;;27.80;44.70;;;;;;4947126;28;45277;-66
2022/05/23 15:34:18;;;;;;;2.55;1.13;;;27.80;44.80;;;;;;4949538;28;45225;-63
2022/05/23 15:36:43;;;;;;;2.70;1.17;;;27.80;44.80;;;;;;4949370;28;45853;-66
2022/05/23 15:39:09;;;;;;;1.95;1.27;;;27.80;44.80;;;;;;4951946;28;45988;-66
2022/05/23 15:41:40;;;;;;;1.67;1.00;;;27.80;44.90;;;;;;4951245;28;45308;-65
2022/05/23 15:44:09;;;;;;;3.13;0.80;;;27.80;44.90;;;;;;4928668;28;45641;-67
2022/05/23 15:46:34;;;;;;;2.88;1.10;;;27.80;44.90;;;;;;4948996;28;45299;-63
2022/05/23 15:49:00;;;;;;;1.92;1.15;;;27.80;45.50;;;;;;4951322;28;46264;-64
2022/05/23 15:51:25;;;;;;;2.00;0.95;;;27.80;44.90;;;;;;4950370;28;44943;-64
2022/05/23 15:53:51;;;;;;;1.42;0.93;;;27.80;44.90;;;;;;4932808;28;46246;-64
2022/05/23 15:56:17;;;;;;;2.47;1.30;;;27.80;45.00;;;;;;4951364;28;45468;-64
2022/05/23 15:58:42;;;;;;;2.20;1.15;;;27.80;45.00;;;;;;4915292;28;47068;-63
2022/05/23 16:01:10;;;;;;;4.47;1.35;;;27.80;44.90;;;;;;4949532;28;45904;-67
2022/05/23 16:03:35;;;;;;;2.50;1.15;;;27.80;44.90;;;;;;4931390;28;45427;-64
2022/05/23 16:06:01;;;;;;;2.67;1.15;;;27.80;44.90;;;;;;4949799;28;45506;-64
2022/05/23 16:08:27;;;;;;;4.90;1.40;;;27.80;44.80;;;;;;4931978;28;46045;-66
2022/05/23 16:11:03;;;;;;;1.60;1.13;;;27.80;44.80;;;;;;4948313;28;45417;-65
2022/05/23 16:13:28;;;;;;;1.90;1.15;;;27.80;44.90;;;;;;4948615;28;45596;-64
2022/05/23 16:15:54;;;;;;;1.40;1.20;;;27.80;44.80;;;;;;4912903;28;45443;-65
2022/05/23 16:18:22;;;;;;;2.22;1.10;;;27.80;44.80;;;;;;4917071;28;45713;-64
2022/05/23 16:20:48;;;;;;;1.42;1.10;;;27.80;44.80;;;;;;4932279;28;44703;-63
2022/05/23 16:23:13;;;;;;;2.22;1.27;;;27.80;44.80;;;;;;4929189;28;45829;-63
2022/05/23 16:25:40;;;;;;;1.15;1.05;;;27.80;44.80;;;;;;4933281;28;45657;-65
2022/05/23 16:28:06;;;;;;;2.50;1.30;;;27.80;44.80;;;;;;4949732;28;45152;-64
2022/05/23 16:30:33;;;;;;;1.75;1.30;;;27.80;45.30;;;;;;4916168;28;45236;-63
2022/05/23 16:38:28;;;;;;;2.10;1.33;;;27.80;44.70;;;;;;4947689;28;47507;-64
2022/05/23 16:40:54;;;;;;;2.90;1.08;;;27.80;44.80;;;;;;4953246;28;45148;-64
2022/05/23 16:43:19;;;;;;;5.40;1.38;;;27.80;44.80;;;;;;4945951;28;45455;-63
2022/05/23 16:45:45;;;;;;;2.35;1.17;;;27.80;44.80;;;;;;4932491;28;45312;-65
2022/05/23 16:48:12;;;;;;;2.22;0.90;;;27.80;44.80;;;;;;4948661;28;45605;-65
2022/05/23 16:50:38;;;;;;;1.50;1.00;;;27.80;44.80;;;;;;4950078;28;45410;-65
2022/05/23 16:53:03;;;;;;;4.40;1.17;;;27.70;44.80;;;;;;4948117;28;45110;-65
2022/05/23 16:55:29;;;;;;;1.58;1.02;;;27.70;44.80;;;;;;4947166;28;44879;-64
2022/05/23 16:57:55;;;;;;;2.03;1.23;;;27.70;44.90;;;;;;4947336;28;46938;-65
2022/05/23 17:00:21;;;;;;;2.85;1.40;;;27.70;44.90;;;;;;4949626;28;45081;-63
2022/05/23 17:02:46;;;;;;;3.03;1.00;;;27.70;45.00;;;;;;4946518;28;45586;-65
2022/05/23 17:05:12;;;;;;;1.83;1.10;;;27.70;45.00;;;;;;4949098;28;45521;-64
2022/05/23 17:07:37;;;;;;;4.20;1.10;;;27.70;45.10;;;;;;4932476;28;45464;-63
2022/05/23 17:10:03;;;;;;;2.25;1.02;;;27.70;45.00;;;;;;4950592;28;45236;-64
2022/05/23 17:12:29;;;;;;;2.33;1.10;;;27.70;45.10;;;;;;4950221;28;45156;-63
2022/05/23 17:14:54;;;;;;;2.50;1.13;;;27.70;45.10;;;;;;4948560;28;45203;-65
2022/05/23 17:17:20;;;;;;;2.35;1.20;;;27.70;45.10;;;;;;4949983;28;46168;-64